createdAt,value
2023-04-10T00:00:30.693Z,88889.00
2023-04-10T00:01:30.749Z,88887.00
2023-04-10T00:02:30.938Z,88885.00
2023-04-10T00:03:31.004Z,88887.00
2023-04-10T00:04:30.996Z,88885.00
2023-04-10T00:05:30.951Z,88885.00
2023-04-10T00:06:30.973Z,88884.00
2023-04-10T00:07:31.029Z,88884.00
2023-04-10T00:08:31.067Z,88885.00
2023-04-10T00:09:31.125Z,88882.00
2023-04-10T00:10:31.175Z,88882.00
2023-04-10T00:11:31.245Z,88882.00
2023-04-10T00:12:31.278Z,88880.00
2023-04-10T00:13:31.328Z,88880.00
2023-04-10T00:14:31.365Z,88880.00
2023-04-10T00:15:31.424Z,88878.00
2023-04-10T00:16:31.490Z,88878.00
2023-04-10T00:17:31.546Z,88878.00
2023-04-10T00:18:31.562Z,88878.00
2023-04-10T00:19:31.584Z,88878.00
2023-04-10T00:20:31.655Z,88878.00
2023-04-10T00:21:31.674Z,88878.00
2023-04-10T00:22:31.730Z,88876.00
2023-04-10T00:23:31.768Z,88874.00
2023-04-10T00:24:31.809Z,88874.00
2023-04-10T00:25:31.840Z,88870.00
2023-04-10T00:26:31.897Z,88870.00
2023-04-10T00:27:31.938Z,88872.00
2023-04-10T00:28:31.979Z,88868.00
2023-04-10T00:29:32.005Z,88868.00
2023-04-10T00:30:32.065Z,88868.00
2023-04-10T00:31:32.136Z,88870.00
2023-04-10T00:32:32.149Z,88870.00
2023-04-10T00:33:32.177Z,88868.00
2023-04-10T00:34:32.216Z,88866.00
2023-04-10T00:35:32.388Z,88868.00
2023-04-10T00:36:32.287Z,88866.00
2023-04-10T00:37:32.329Z,88866.00
2023-04-10T00:38:32.376Z,88864.00
2023-04-10T00:39:32.405Z,88864.00
2023-04-10T00:40:32.428Z,88864.00
2023-04-10T00:41:32.467Z,88862.00
2023-04-10T00:42:32.516Z,88862.00
2023-04-10T00:43:32.506Z,88862.00
2023-04-10T00:44:32.535Z,88862.00
2023-04-10T00:45:32.536Z,88860.00
2023-04-10T00:46:32.661Z,88862.00
2023-04-10T00:47:32.643Z,88858.00
2023-04-10T00:48:32.632Z,88856.00
2023-04-10T00:49:32.669Z,88856.00
2023-04-10T00:50:32.675Z,88858.00
2023-04-10T00:51:32.672Z,88858.00
2023-04-10T00:52:32.703Z,88858.00
2023-04-10T00:53:32.744Z,88860.00
2023-04-10T00:54:32.751Z,88860.00
2023-04-10T00:55:32.794Z,88858.00
2023-04-10T00:56:32.819Z,88858.00
2023-04-10T00:57:32.814Z,88856.00
2023-04-10T00:58:32.860Z,88860.00
2023-04-10T00:59:32.851Z,88856.00
2023-04-10T01:00:32.886Z,88856.00
2023-04-10T01:01:32.947Z,88854.00
2023-04-10T01:02:33.000Z,88856.00
2023-04-10T01:03:33.198Z,88860.00
2023-04-10T01:04:33.142Z,88858.00
2023-04-10T01:05:32.973Z,88860.00
2023-04-10T01:06:33.014Z,88858.00
2023-04-10T01:07:33.014Z,88858.00
2023-04-10T01:08:33.050Z,88858.00
2023-04-10T01:09:33.085Z,88856.00
2023-04-10T01:10:33.141Z,88858.00
2023-04-10T01:11:33.168Z,88858.00
2023-04-10T01:12:33.226Z,88862.00
2023-04-10T01:13:33.278Z,88856.00
2023-04-10T01:14:33.325Z,88858.00
2023-04-10T01:15:33.343Z,88858.00
2023-04-10T01:16:33.432Z,88856.00
2023-04-10T01:17:33.481Z,88854.00
2023-04-10T01:18:33.554Z,88854.00
2023-04-10T01:19:33.566Z,88858.00
2023-04-10T01:20:33.634Z,88858.00
2023-04-10T01:21:33.686Z,88856.00
2023-04-10T01:22:33.721Z,88856.00
2023-04-10T01:23:33.821Z,88856.00
2023-04-10T01:24:33.840Z,88858.00
2023-04-10T01:25:33.910Z,88856.00
2023-04-10T01:26:33.949Z,88856.00
2023-04-10T01:27:33.997Z,88854.00
2023-04-10T01:28:34.081Z,88858.00
2023-04-10T01:29:34.107Z,88854.00
2023-04-10T01:30:34.183Z,88854.00
2023-04-10T01:31:34.226Z,88854.00
2023-04-10T01:32:34.266Z,88854.00
2023-04-10T01:33:34.306Z,88856.00
2023-04-10T01:34:34.396Z,88858.00
2023-04-10T01:35:34.437Z,88858.00
2023-04-10T01:36:34.458Z,88854.00
2023-04-10T01:37:34.535Z,88856.00
2023-04-10T01:38:34.569Z,88858.00
2023-04-10T01:39:34.622Z,88856.00
2023-04-10T01:40:34.686Z,88856.00
2023-04-10T01:41:34.731Z,88854.00
2023-04-10T01:42:34.812Z,88854.00
2023-04-10T01:43:34.852Z,88854.00
2023-04-10T01:44:34.889Z,88854.00
2023-04-10T01:45:34.956Z,88852.00
2023-04-10T01:46:35.019Z,88852.00
2023-04-10T01:47:35.110Z,88852.00
2023-04-10T01:48:35.097Z,88850.00
2023-04-10T01:49:35.155Z,88850.00
2023-04-10T01:50:35.225Z,88850.00
2023-04-10T01:51:35.232Z,88848.00
2023-04-10T01:52:35.286Z,88846.00
2023-04-10T01:53:35.350Z,88848.00
2023-04-10T01:54:35.424Z,88846.00
2023-04-10T01:55:35.463Z,88844.00
2023-04-10T01:56:35.552Z,88844.00
2023-04-10T01:57:35.555Z,88844.00
2023-04-10T01:58:35.623Z,88844.00
2023-04-10T01:59:35.668Z,88844.00
2023-04-10T02:00:35.703Z,88844.00
2023-04-10T02:01:35.813Z,88844.00
2023-04-10T02:02:35.927Z,88848.00
2023-04-10T02:03:35.973Z,88846.00
2023-04-10T02:04:35.980Z,88842.00
2023-04-10T02:05:35.973Z,88844.00
2023-04-10T02:06:36.025Z,88842.00
2023-04-10T02:07:36.097Z,88844.00
2023-04-10T02:08:36.146Z,88844.00
2023-04-10T02:09:36.206Z,88844.00
2023-04-10T02:10:36.250Z,88844.00
2023-04-10T02:11:36.293Z,88844.00
2023-04-10T02:12:36.310Z,88842.00
2023-04-10T02:13:36.335Z,88844.00
2023-04-10T02:14:36.395Z,88842.00
2023-04-10T02:15:36.470Z,88842.00
2023-04-10T02:16:36.400Z,88842.00
2023-04-10T02:17:36.485Z,88842.00
2023-04-10T02:18:36.486Z,88840.00
2023-04-10T02:19:36.498Z,88838.00
2023-04-10T02:20:36.493Z,88837.00
2023-04-10T02:21:36.519Z,88835.00
2023-04-10T02:22:36.539Z,88835.00
2023-04-10T02:23:36.558Z,88835.00
2023-04-10T02:24:36.616Z,88833.00
2023-04-10T02:25:36.584Z,88835.00
2023-04-10T02:26:36.596Z,88835.00
2023-04-10T02:27:36.630Z,88835.00
2023-04-10T02:28:36.632Z,88837.00
2023-04-10T02:29:36.644Z,88837.00
2023-04-10T02:30:36.653Z,88837.00
2023-04-10T02:31:36.743Z,88840.00
2023-04-10T02:32:36.763Z,88835.00
2023-04-10T02:33:36.742Z,88835.00
2023-04-10T02:34:36.721Z,88835.00
2023-04-10T02:35:36.803Z,88835.00
2023-04-10T02:36:36.761Z,88835.00
2023-04-10T02:37:36.801Z,88837.00
2023-04-10T02:38:36.797Z,88835.00
2023-04-10T02:39:36.820Z,88833.00
2023-04-10T02:40:36.829Z,88833.00
2023-04-10T02:41:36.852Z,88829.00
2023-04-10T02:42:36.884Z,88827.00
2023-04-10T02:43:36.901Z,88827.00
2023-04-10T02:44:36.949Z,88827.00
2023-04-10T02:45:36.955Z,88819.00
2023-04-10T02:46:37.059Z,88819.00
2023-04-10T02:47:37.037Z,88819.00
2023-04-10T02:48:37.035Z,88817.00
2023-04-10T02:49:37.073Z,88815.00
2023-04-10T02:50:37.079Z,88817.00
2023-04-10T02:51:37.092Z,88821.00
2023-04-10T02:52:37.103Z,88821.00
2023-04-10T02:53:37.138Z,88817.00
2023-04-10T02:54:37.153Z,88815.00
2023-04-10T02:55:37.159Z,88815.00
2023-04-10T02:56:37.186Z,88813.00
2023-04-10T02:57:37.196Z,88813.00
2023-04-10T02:58:37.232Z,88811.00
2023-04-10T02:59:37.254Z,88811.00
2023-04-10T03:00:37.292Z,88809.00
2023-04-10T03:01:37.374Z,88807.00
2023-04-10T03:02:37.479Z,88809.00
2023-04-10T03:03:37.417Z,88807.00
2023-04-10T03:04:37.395Z,88811.00
2023-04-10T03:05:37.384Z,88807.00
2023-04-10T03:06:37.395Z,88807.00
2023-04-10T03:07:37.433Z,88807.00
2023-04-10T03:08:37.447Z,88809.00
2023-04-10T03:09:37.480Z,88803.00
2023-04-10T03:10:37.553Z,88805.00
2023-04-10T03:11:37.620Z,88803.00
2023-04-10T03:12:37.669Z,88803.00
2023-04-10T03:13:37.761Z,88803.00
2023-04-10T03:14:37.846Z,88807.00
2023-04-10T03:15:37.898Z,88803.00
2023-04-10T03:16:38.057Z,88803.00
2023-04-10T03:17:38.081Z,88803.00
2023-04-10T03:18:38.129Z,88803.00
2023-04-10T03:19:38.224Z,88803.00
2023-04-10T03:20:38.299Z,88803.00
2023-04-10T03:21:38.400Z,88803.00
2023-04-10T03:22:38.458Z,88803.00
2023-04-10T03:23:38.564Z,88803.00
2023-04-10T03:24:38.641Z,88799.00
2023-04-10T03:25:38.738Z,88803.00
2023-04-10T03:26:38.813Z,88803.00
2023-04-10T03:27:38.904Z,88803.00
2023-04-10T03:28:38.999Z,88801.00
2023-04-10T03:29:39.096Z,88799.00
2023-04-10T03:30:39.172Z,88799.00
2023-04-10T03:31:39.302Z,88801.00
2023-04-10T03:32:39.372Z,88799.00
2023-04-10T03:33:39.478Z,88801.00
2023-04-10T03:34:39.551Z,88799.00
2023-04-10T03:35:39.633Z,88801.00
2023-04-10T03:36:39.689Z,88799.00
2023-04-10T03:37:39.777Z,88801.00
2023-04-10T03:38:39.803Z,88803.00
2023-04-10T03:39:39.832Z,88807.00
2023-04-10T03:40:39.893Z,88805.00
2023-04-10T03:41:39.900Z,88805.00
2023-04-10T03:42:39.929Z,88807.00
2023-04-10T03:43:39.952Z,88809.00
2023-04-10T03:44:39.980Z,88809.00
2023-04-10T03:45:40.018Z,88805.00
2023-04-10T03:46:40.071Z,88809.00
2023-04-10T03:47:40.111Z,88807.00
2023-04-10T03:48:40.108Z,88805.00
2023-04-10T03:49:40.120Z,88809.00
2023-04-10T03:50:40.175Z,88809.00
2023-04-10T03:51:40.202Z,88805.00
2023-04-10T03:52:40.242Z,88803.00
2023-04-10T03:53:40.250Z,88803.00
2023-04-10T03:54:40.287Z,88803.00
2023-04-10T03:55:40.334Z,88807.00
2023-04-10T03:56:40.365Z,88809.00
2023-04-10T03:57:40.422Z,88803.00
2023-04-10T03:58:40.450Z,88803.00
2023-04-10T03:59:40.495Z,88809.00
2023-04-10T04:00:40.539Z,88805.00
2023-04-10T04:01:40.657Z,88807.00
2023-04-10T04:02:40.689Z,88811.00
2023-04-10T04:03:40.793Z,88809.00
2023-04-10T04:04:40.723Z,88811.00
2023-04-10T04:05:40.769Z,88813.00
2023-04-10T04:06:40.797Z,88813.00
2023-04-10T04:07:40.872Z,88815.00
2023-04-10T04:08:40.928Z,88817.00
2023-04-10T04:09:40.962Z,88815.00
2023-04-10T04:10:41.022Z,88819.00
2023-04-10T04:11:41.052Z,88817.00
2023-04-10T04:12:41.102Z,88819.00
2023-04-10T04:13:41.162Z,88819.00
2023-04-10T04:14:41.194Z,88817.00
2023-04-10T04:15:41.241Z,88821.00
2023-04-10T04:16:41.306Z,88821.00
2023-04-10T04:17:41.358Z,88821.00
2023-04-10T04:18:41.367Z,88821.00
2023-04-10T04:19:41.425Z,88821.00
2023-04-10T04:20:41.463Z,88823.00
2023-04-10T04:21:41.497Z,88823.00
2023-04-10T04:22:41.600Z,88823.00
2023-04-10T04:23:41.599Z,88825.00
2023-04-10T04:24:41.662Z,88825.00
2023-04-10T04:25:41.679Z,88827.00
2023-04-10T04:26:41.718Z,88829.00
2023-04-10T04:27:41.758Z,88831.00
2023-04-10T04:28:41.818Z,88831.00
2023-04-10T04:29:41.846Z,88835.00
2023-04-10T04:30:41.887Z,88833.00
2023-04-10T04:31:42.006Z,88833.00
2023-04-10T04:32:42.031Z,88833.00
2023-04-10T04:33:42.013Z,88835.00
2023-04-10T04:34:42.059Z,88835.00
2023-04-10T04:35:42.138Z,88838.00
2023-04-10T04:36:42.153Z,88837.00
2023-04-10T04:37:42.212Z,88838.00
2023-04-10T04:38:42.264Z,88838.00
2023-04-10T04:39:42.274Z,88840.00
2023-04-10T04:40:42.320Z,88838.00
2023-04-10T04:41:42.357Z,88837.00
2023-04-10T04:42:42.424Z,88838.00
2023-04-10T04:43:42.488Z,88837.00
2023-04-10T04:44:42.501Z,88840.00
2023-04-10T04:45:42.591Z,88837.00
2023-04-10T04:46:44.522Z,88840.00
2023-04-10T04:47:42.704Z,88838.00
2023-04-10T04:48:42.711Z,88838.00
2023-04-10T04:49:42.768Z,88837.00
2023-04-10T04:50:42.840Z,88837.00
2023-04-10T04:51:42.889Z,88835.00
2023-04-10T04:52:42.938Z,88835.00
2023-04-10T04:53:43.003Z,88835.00
2023-04-10T04:54:43.055Z,88835.00
2023-04-10T04:55:43.135Z,88837.00
2023-04-10T04:56:43.186Z,88835.00
2023-04-10T04:57:43.240Z,88838.00
2023-04-10T04:58:43.298Z,88835.00
2023-04-10T04:59:43.350Z,88837.00
2023-04-10T05:00:43.432Z,88837.00
2023-04-10T05:01:43.512Z,88837.00
2023-04-10T05:02:43.604Z,88837.00
2023-04-10T05:03:43.692Z,88838.00
2023-04-10T05:04:43.539Z,88838.00
2023-04-10T05:05:43.589Z,88842.00
2023-04-10T05:06:43.603Z,88842.00
2023-04-10T05:07:43.630Z,88842.00
2023-04-10T05:08:43.666Z,88842.00
2023-04-10T05:09:43.697Z,88842.00
2023-04-10T05:10:43.754Z,88846.00
2023-04-10T05:11:43.759Z,88846.00
2023-04-10T05:12:43.803Z,88848.00
2023-04-10T05:13:43.832Z,88842.00
2023-04-10T05:14:43.878Z,88844.00
2023-04-10T05:15:43.921Z,88848.00
2023-04-10T05:16:43.934Z,88844.00
2023-04-10T05:17:44.058Z,88842.00
2023-04-10T05:18:44.020Z,88844.00
2023-04-10T05:19:44.037Z,88844.00
2023-04-10T05:20:44.072Z,88840.00
2023-04-10T05:21:44.122Z,88838.00
2023-04-10T05:22:44.130Z,88840.00
2023-04-10T05:23:44.172Z,88838.00
2023-04-10T05:24:44.188Z,88840.00
2023-04-10T05:25:44.227Z,88840.00
2023-04-10T05:26:44.266Z,88840.00
2023-04-10T05:27:44.320Z,88840.00
2023-04-10T05:28:44.376Z,88838.00
2023-04-10T05:29:44.446Z,88837.00
2023-04-10T05:30:44.540Z,88835.00
2023-04-10T05:31:44.586Z,88833.00
2023-04-10T05:32:44.636Z,88831.00
2023-04-10T05:33:44.708Z,88831.00
2023-04-10T05:34:44.762Z,88829.00
2023-04-10T05:35:44.902Z,88829.00
2023-04-10T05:36:44.882Z,88831.00
2023-04-10T05:37:44.943Z,88831.00
2023-04-10T05:38:45.003Z,88835.00
2023-04-10T05:39:45.064Z,88833.00
2023-04-10T05:40:45.124Z,88835.00
2023-04-10T05:41:45.182Z,88837.00
2023-04-10T05:42:45.248Z,88837.00
2023-04-10T05:43:45.321Z,88837.00
2023-04-10T05:44:48.141Z,88837.00
2023-04-10T05:48:23.262Z,88844.00
2023-04-10T05:49:23.258Z,88844.00
2023-04-10T05:50:23.327Z,88842.00
2023-04-10T05:51:23.252Z,88840.00
2023-04-10T05:52:23.214Z,88844.00
2023-04-10T05:53:23.211Z,88844.00
2023-04-10T05:54:23.209Z,88840.00
2023-04-10T05:55:23.168Z,88842.00
2023-04-10T05:56:23.176Z,88844.00
2023-04-10T05:57:23.151Z,88842.00
2023-04-10T05:58:23.128Z,88846.00
2023-04-10T05:59:23.126Z,88846.00
2023-04-10T06:00:23.084Z,88846.00
2023-04-10T06:01:23.088Z,88848.00
2023-04-10T06:02:23.217Z,88846.00
2023-04-10T06:03:23.184Z,88846.00
2023-04-10T06:04:23.171Z,88848.00
2023-04-10T06:05:23.105Z,88850.00
2023-04-10T06:06:23.014Z,88850.00
2023-04-10T06:07:22.965Z,88850.00
2023-04-10T06:08:22.932Z,88850.00
2023-04-10T06:09:22.942Z,88850.00
2023-04-10T06:10:22.916Z,88852.00
2023-04-10T06:11:22.916Z,88852.00
2023-04-10T06:12:22.914Z,88850.00
2023-04-10T06:13:22.856Z,88852.00
2023-04-10T06:14:22.894Z,88850.00
2023-04-10T06:15:22.821Z,88854.00
2023-04-10T06:16:22.879Z,88858.00
2023-04-10T06:17:22.802Z,88854.00
2023-04-10T06:18:22.787Z,88854.00
2023-04-10T06:19:22.968Z,88854.00
2023-04-10T06:20:22.744Z,88856.00
2023-04-10T06:21:22.739Z,88856.00
2023-04-10T06:22:22.713Z,88854.00
2023-04-10T06:23:22.756Z,88856.00
2023-04-10T06:24:22.780Z,88856.00
2023-04-10T06:25:22.839Z,88856.00
2023-04-10T06:26:22.871Z,88856.00
2023-04-10T06:27:22.954Z,88858.00
2023-04-10T06:28:22.988Z,88856.00
2023-04-10T06:29:23.031Z,88860.00
2023-04-10T06:30:23.121Z,88858.00
2023-04-10T06:31:23.270Z,88858.00
2023-04-10T06:32:23.237Z,88858.00
2023-04-10T06:33:24.832Z,88862.00
2023-04-10T06:34:23.234Z,88860.00
2023-04-10T06:35:23.207Z,88858.00
2023-04-10T06:36:23.198Z,88856.00
2023-04-10T06:37:23.189Z,88858.00
2023-04-10T06:38:23.157Z,88858.00
2023-04-10T06:39:23.129Z,88858.00
2023-04-10T06:40:23.130Z,88856.00
2023-04-10T06:41:23.111Z,88854.00
2023-04-10T06:42:23.197Z,88856.00
2023-04-10T06:43:23.091Z,88856.00
2023-04-10T06:44:23.057Z,88856.00
2023-04-10T06:45:23.068Z,88856.00
2023-04-10T06:46:23.142Z,88854.00
2023-04-10T06:47:23.102Z,88856.00
2023-04-10T06:48:23.032Z,88854.00
2023-04-10T06:49:23.034Z,88854.00
2023-04-10T06:50:22.997Z,88854.00
2023-04-10T06:51:22.971Z,88852.00
2023-04-10T06:52:22.967Z,88852.00
2023-04-10T06:53:22.933Z,88850.00
2023-04-10T06:54:22.918Z,88852.00
2023-04-10T06:55:22.884Z,88848.00
2023-04-10T06:56:22.834Z,88848.00
2023-04-10T06:57:22.807Z,88850.00
2023-04-10T06:58:22.752Z,88848.00
2023-04-10T06:59:22.716Z,88846.00
2023-04-10T07:00:22.647Z,88846.00
2023-04-10T07:01:22.750Z,88846.00
2023-04-10T07:02:22.723Z,88846.00
2023-04-10T07:03:22.523Z,88844.00
2023-04-10T07:04:22.434Z,88840.00
2023-04-10T07:05:22.385Z,88840.00
2023-04-10T07:06:22.333Z,88842.00
2023-04-10T07:07:22.285Z,88842.00
2023-04-10T07:08:22.213Z,88840.00
2023-04-10T07:09:22.174Z,88838.00
2023-04-10T07:10:22.104Z,88838.00
2023-04-10T07:11:22.060Z,88838.00
2023-04-10T07:12:22.006Z,88833.00
2023-04-10T07:13:21.948Z,88827.00
2023-04-10T07:14:21.881Z,88833.00
2023-04-10T07:15:21.835Z,88831.00
2023-04-10T07:16:21.822Z,88825.00
2023-04-10T07:17:21.766Z,88823.00
2023-04-10T07:18:21.698Z,88823.00
2023-04-10T07:19:21.680Z,88821.00
2023-04-10T07:20:21.607Z,88817.00
2023-04-10T07:21:21.560Z,88817.00
2023-04-10T07:22:21.519Z,88813.00
2023-04-10T07:23:21.467Z,88813.00
2023-04-10T07:24:21.422Z,88811.00
2023-04-10T07:25:21.383Z,88807.00
2023-04-10T07:26:21.351Z,88811.00
2023-04-10T07:27:21.348Z,88811.00
2023-04-10T07:28:21.299Z,88807.00
2023-04-10T07:29:21.369Z,88805.00
2023-04-10T07:30:21.347Z,88805.00
2023-04-10T07:31:21.426Z,88807.00
2023-04-10T07:32:21.497Z,88805.00
2023-04-10T07:33:21.566Z,88807.00
2023-04-10T07:34:21.340Z,88805.00
2023-04-10T07:35:21.340Z,88803.00
2023-04-10T07:36:21.377Z,88801.00
2023-04-10T07:37:21.378Z,88801.00
2023-04-10T07:38:21.345Z,88797.00
2023-04-10T07:39:21.318Z,88797.00
2023-04-10T07:40:21.310Z,88795.00
2023-04-10T07:41:21.271Z,88795.00
2023-04-10T07:42:21.266Z,88791.00
2023-04-10T07:43:21.255Z,88791.00
2023-04-10T07:44:21.247Z,88789.00
2023-04-10T07:45:21.218Z,88787.00
2023-04-10T07:46:21.224Z,88789.00
2023-04-10T07:47:21.205Z,88787.00
2023-04-10T07:48:21.149Z,88787.00
2023-04-10T07:49:21.130Z,88785.00
2023-04-10T07:50:22.206Z,88785.00
2023-04-10T07:51:21.267Z,88783.00
2023-04-10T07:52:21.015Z,88783.00
2023-04-10T07:53:20.972Z,88782.00
2023-04-10T07:54:20.934Z,88780.00
2023-04-10T07:55:20.938Z,88780.00
2023-04-10T07:56:20.875Z,88778.00
2023-04-10T07:57:20.854Z,88780.00
2023-04-10T07:58:20.805Z,88780.00
2023-04-10T07:59:20.792Z,88778.00
2023-04-10T08:00:20.748Z,88780.00
2023-04-10T08:01:20.722Z,88780.00
2023-04-10T08:02:20.784Z,88778.00
2023-04-10T08:03:20.728Z,88778.00
2023-04-10T08:04:20.803Z,88778.00
2023-04-10T08:05:20.698Z,88778.00
2023-04-10T08:06:20.540Z,88778.00
2023-04-10T08:07:20.509Z,88776.00
2023-04-10T08:08:20.459Z,88776.00
2023-04-10T08:09:20.428Z,88776.00
2023-04-10T08:10:20.433Z,88774.00
2023-04-10T08:11:20.374Z,88774.00
2023-04-10T08:12:20.350Z,88774.00
2023-04-10T08:13:20.289Z,88774.00
2023-04-10T08:14:20.255Z,88774.00
2023-04-10T08:15:20.227Z,88772.00
2023-04-10T08:16:20.210Z,88764.00
2023-04-10T08:17:20.174Z,88764.00
2023-04-10T08:18:20.151Z,88766.00
2023-04-10T08:19:20.092Z,88764.00
2023-04-10T08:20:20.080Z,88760.00
2023-04-10T08:21:20.041Z,88762.00
2023-04-10T08:22:20.001Z,88760.00
2023-04-10T08:23:21.027Z,88762.00
2023-04-10T08:24:19.945Z,88756.00
2023-04-10T08:25:19.918Z,88756.00
2023-04-10T08:26:19.908Z,88758.00
2023-04-10T08:27:19.862Z,88754.00
2023-04-10T08:28:19.842Z,88752.00
2023-04-10T08:29:19.849Z,88754.00
2023-04-10T08:30:19.799Z,88752.00
2023-04-10T08:31:19.893Z,88752.00
2023-04-10T08:32:19.788Z,88748.00
2023-04-10T08:33:19.766Z,88748.00
2023-04-10T08:34:19.742Z,88746.00
2023-04-10T08:35:19.711Z,88746.00
2023-04-10T08:36:20.570Z,88748.00
2023-04-10T08:37:19.671Z,88748.00
2023-04-10T08:38:19.708Z,88748.00
2023-04-10T08:39:19.635Z,88746.00
2023-04-10T08:40:19.629Z,88748.00
2023-04-10T08:41:19.694Z,88746.00
2023-04-10T08:42:19.659Z,88746.00
2023-04-10T08:43:19.695Z,88748.00
2023-04-10T08:44:19.742Z,88746.00
2023-04-10T08:45:19.764Z,88746.00
2023-04-10T08:46:19.899Z,88733.00
2023-04-10T08:47:19.773Z,88744.00
2023-04-10T08:48:19.748Z,88744.00
2023-04-10T08:49:19.779Z,88744.00
2023-04-10T08:50:19.829Z,88737.00
2023-04-10T08:51:20.487Z,88733.00
2023-04-10T08:52:20.810Z,88735.00
2023-04-10T08:53:19.772Z,88733.00
2023-04-10T08:54:19.811Z,88737.00
2023-04-10T08:55:19.732Z,88737.00
2023-04-10T08:56:19.672Z,88744.00
2023-04-10T08:57:19.636Z,88744.00
2023-04-10T08:58:19.598Z,88737.00
2023-04-10T08:59:19.591Z,88748.00
2023-04-10T09:00:23.325Z,88744.00
2023-04-10T09:01:20.567Z,88744.00
2023-04-10T09:02:19.697Z,88737.00
2023-04-10T09:03:19.626Z,88733.00
2023-04-10T09:04:19.505Z,88733.00
2023-04-10T09:05:19.392Z,88733.00
2023-04-10T09:06:19.363Z,88735.00
2023-04-10T09:07:19.319Z,88735.00
2023-04-10T09:08:19.291Z,88733.00
2023-04-10T09:09:19.250Z,88733.00
2023-04-10T09:10:19.270Z,88733.00
2023-04-10T09:11:19.295Z,88731.00
2023-04-10T09:12:19.322Z,88733.00
2023-04-10T09:13:19.357Z,88731.00
2023-04-10T09:14:19.366Z,88731.00
2023-04-10T09:15:19.389Z,88735.00
2023-04-10T09:16:19.449Z,88733.00
2023-04-10T09:17:19.442Z,88733.00
2023-04-10T09:18:19.447Z,88735.00
2023-04-10T09:19:19.419Z,88731.00
2023-04-10T09:20:19.398Z,88731.00
2023-04-10T09:21:19.313Z,88731.00
2023-04-10T09:22:19.263Z,88731.00
2023-04-10T09:23:19.233Z,88729.00
2023-04-10T09:24:19.207Z,88727.00
2023-04-10T09:25:19.172Z,88729.00
2023-04-10T09:26:19.094Z,88729.00
2023-04-10T09:27:19.042Z,88731.00
2023-04-10T09:28:18.993Z,88727.00
2023-04-10T09:29:18.960Z,88723.00
2023-04-10T09:30:18.922Z,88723.00
2023-04-10T09:31:18.940Z,88721.00
2023-04-10T09:32:18.894Z,88721.00
2023-04-10T09:33:18.901Z,88721.00
2023-04-10T09:34:18.924Z,88719.00
2023-04-10T09:35:18.878Z,88717.00
2023-04-10T09:36:18.902Z,88717.00
2023-04-10T09:37:18.900Z,88715.00
2023-04-10T09:38:18.880Z,88715.00
2023-04-10T09:39:18.890Z,88714.00
2023-04-10T09:40:18.902Z,88714.00
2023-04-10T09:41:18.841Z,88714.00
2023-04-10T09:42:18.825Z,88712.00
2023-04-10T09:43:18.837Z,88710.00
2023-04-10T09:44:18.801Z,88710.00
2023-04-10T09:45:18.789Z,88712.00
2023-04-10T09:46:18.778Z,88710.00
2023-04-10T09:47:18.719Z,88708.00
2023-04-10T09:48:18.726Z,88706.00
2023-04-10T09:49:18.674Z,88704.00
2023-04-10T09:50:18.663Z,88702.00
2023-04-10T09:51:18.608Z,88702.00
2023-04-10T09:52:18.574Z,88700.00
2023-04-10T09:53:18.587Z,88700.00
2023-04-10T09:54:18.554Z,88700.00
2023-04-10T09:55:18.505Z,88698.00
2023-04-10T09:56:18.472Z,88702.00
2023-04-10T09:57:18.437Z,88698.00
2023-04-10T09:58:18.381Z,88696.00
2023-04-10T09:59:18.375Z,88694.00
2023-04-10T10:00:18.308Z,88692.00
2023-04-10T10:01:18.291Z,88692.00
2023-04-10T10:02:18.315Z,88688.00
2023-04-10T10:03:18.428Z,88686.00
2023-04-10T10:04:18.248Z,88684.00
2023-04-10T10:05:18.127Z,88682.00
2023-04-10T10:06:18.088Z,88680.00
2023-04-10T10:07:18.062Z,88680.00
2023-04-10T10:08:17.996Z,88678.00
2023-04-10T10:09:17.970Z,88678.00
2023-04-10T10:10:17.983Z,88676.00
2023-04-10T10:11:17.881Z,88674.00
2023-04-10T10:12:17.854Z,88674.00
2023-04-10T10:13:17.795Z,88674.00
2023-04-10T10:14:17.831Z,88672.00
2023-04-10T10:15:17.711Z,88670.00
2023-04-10T10:16:17.700Z,88666.00
2023-04-10T10:17:17.636Z,88666.00
2023-04-10T10:18:17.592Z,88668.00
2023-04-10T10:19:17.556Z,88666.00
2023-04-10T10:20:17.499Z,88664.00
2023-04-10T10:21:17.474Z,88664.00
2023-04-10T10:22:17.463Z,88659.00
2023-04-10T10:23:17.425Z,88659.00
2023-04-10T10:24:17.382Z,88657.00
2023-04-10T10:25:17.324Z,88655.00
2023-04-10T10:26:17.274Z,88655.00
2023-04-10T10:27:17.237Z,88655.00
2023-04-10T10:28:17.214Z,88651.00
2023-04-10T10:29:17.186Z,88655.00
2023-04-10T10:30:28.866Z,88653.00
2023-04-10T10:31:18.193Z,88651.00
2023-04-10T10:32:17.046Z,88653.00
2023-04-10T10:33:17.013Z,88651.00
2023-04-10T10:34:17.025Z,88649.00
2023-04-10T10:35:16.878Z,88653.00
2023-04-10T10:36:16.839Z,88651.00
2023-04-10T10:37:16.764Z,88649.00
2023-04-10T10:38:16.734Z,88649.00
2023-04-10T10:39:16.692Z,88647.00
2023-04-10T10:40:16.686Z,88643.00
2023-04-10T10:41:16.680Z,88643.00
2023-04-10T10:42:16.686Z,88643.00
2023-04-10T10:43:16.696Z,88637.00
2023-04-10T10:44:16.704Z,88637.00
2023-04-10T10:45:16.708Z,88637.00
2023-04-10T10:46:16.826Z,88639.00
2023-04-10T10:47:16.757Z,88639.00
2023-04-10T10:48:16.763Z,88633.00
2023-04-10T10:49:16.762Z,88631.00
2023-04-10T10:50:16.838Z,88625.00
2023-04-10T10:51:16.753Z,88627.00
2023-04-10T10:52:16.785Z,88625.00
2023-04-10T10:53:16.792Z,88621.00
2023-04-10T10:54:16.800Z,88621.00
2023-04-10T10:55:16.814Z,88623.00
2023-04-10T10:56:16.819Z,88621.00
2023-04-10T10:57:16.825Z,88619.00
2023-04-10T10:58:16.833Z,88615.00
2023-04-10T10:59:16.840Z,88615.00
2023-04-10T11:00:16.892Z,88612.00
2023-04-10T11:01:16.882Z,88610.00
2023-04-10T11:02:17.014Z,88604.00
2023-04-10T11:03:16.983Z,88604.00
2023-04-10T11:04:16.912Z,88606.00
2023-04-10T11:05:16.801Z,88608.00
2023-04-10T11:06:16.810Z,88604.00
2023-04-10T11:07:16.829Z,88604.00
2023-04-10T11:08:16.833Z,88600.00
2023-04-10T11:09:16.825Z,88600.00
2023-04-10T11:10:16.816Z,88600.00
2023-04-10T11:11:16.811Z,88592.00
2023-04-10T11:12:16.812Z,88590.00
2023-04-10T11:13:16.819Z,88586.00
2023-04-10T11:14:16.786Z,88586.00
2023-04-10T11:15:16.707Z,88584.00
2023-04-10T11:16:16.656Z,88582.00
2023-04-10T11:17:16.612Z,88582.00
2023-04-10T11:18:16.523Z,88580.00
2023-04-10T11:19:17.696Z,88578.00
2023-04-10T11:20:16.473Z,88576.00
2023-04-10T11:21:16.347Z,88578.00
2023-04-10T11:22:16.301Z,88576.00
2023-04-10T11:23:16.251Z,88578.00
2023-04-10T11:24:16.180Z,88576.00
2023-04-10T11:25:16.112Z,88576.00
2023-04-10T11:26:16.058Z,88580.00
2023-04-10T11:27:15.993Z,88580.00
2023-04-10T11:28:15.943Z,88578.00
2023-04-10T11:29:15.896Z,88576.00
2023-04-10T11:30:15.835Z,88574.00
2023-04-10T11:31:15.853Z,88572.00
2023-04-10T11:32:15.748Z,88574.00
2023-04-10T11:33:15.653Z,88574.00
2023-04-10T11:34:15.647Z,88570.00
2023-04-10T11:35:15.521Z,88572.00
2023-04-10T11:36:15.460Z,88568.00
2023-04-10T11:37:15.432Z,88570.00
2023-04-10T11:38:15.401Z,88570.00
2023-04-10T11:39:15.424Z,88570.00
2023-04-10T11:40:15.350Z,88570.00
2023-04-10T11:41:15.335Z,88570.00
2023-04-10T11:42:15.293Z,88568.00
2023-04-10T11:43:15.272Z,88566.00
2023-04-10T11:44:15.273Z,88562.00
2023-04-10T11:45:15.244Z,88560.00
2023-04-10T11:46:15.265Z,88558.00
2023-04-10T11:47:15.154Z,88558.00